sensor_id;sensor_type;location;lat;lon;timestamp;temperature;humidity
21811;DHT22;11067;48.788;9.208;2023-11-18T00:01:51;6.10;99.90
21811;DHT22;11067;48.788;9.208;2023-11-18T00:04:17;6.10;99.90
21811;DHT22;11067;48.788;9.208;2023-11-18T00:06:43;6.10;99.90
21811;DHT22;11067;48.788;9.208;2023-11-18T00:09:12;6.20;99.90
21811;DHT22;11067;48.788;9.208;2023-11-18T00:11:43;6.30;99.90
21811;DHT22;11067;48.788;9.208;2023-11-18T00:14:09;6.30;99.90
21811;DHT22;11067;48.788;9.208;2023-11-18T00:16:37;6.30;99.90
21811;DHT22;11067;48.788;9.208;2023-11-18T00:19:03;6.30;99.90
21811;DHT22;11067;48.788;9.208;2023-11-18T00:21:30;6.30;99.90
21811;DHT22;11067;48.788;9.208;2023-11-18T00:23:56;6.30;99.90
21811;DHT22;11067;48.788;9.208;2023-11-18T00:26:22;6.30;99.90
21811;DHT22;11067;48.788;9.208;2023-11-18T00:28:47;6.30;99.90
21811;DHT22;11067;48.788;9.208;2023-11-18T00:31:14;6.40;99.90
21811;DHT22;11067;48.788;9.208;2023-11-18T00:33:40;6.40;99.90
21811;DHT22;11067;48.788;9.208;2023-11-18T00:36:06;6.40;99.90
21811;DHT22;11067;48.788;9.208;2023-11-18T00:38:32;6.40;99.90
21811;DHT22;11067;48.788;9.208;2023-11-18T00:40:57;6.30;99.90
21811;DHT22;11067;48.788;9.208;2023-11-18T00:43:23;6.30;99.90
21811;DHT22;11067;48.788;9.208;2023-11-18T00:45:48;6.30;99.90
21811;DHT22;11067;48.788;9.208;2023-11-18T00:48:14;6.20;99.90
21811;DHT22;11067;48.788;9.208;2023-11-18T00:50:40;6.30;99.90
21811;DHT22;11067;48.788;9.208;2023-11-18T00:53:05;6.30;99.90
21811;DHT22;11067;48.788;9.208;2023-11-18T00:55:31;6.30;99.90
21811;DHT22;11067;48.788;9.208;2023-11-18T00:57:57;6.30;99.90
21811;DHT22;11067;48.788;9.208;2023-11-18T01:00:23;6.30;99.90
21811;DHT22;11067;48.788;9.208;2023-11-18T01:02:51;6.40;99.90
21811;DHT22;11067;48.788;9.208;2023-11-18T01:05:18;6.40;99.90
21811;DHT22;11067;48.788;9.208;2023-11-18T01:07:44;6.50;99.90
21811;DHT22;11067;48.788;9.208;2023-11-18T01:10:10;6.40;99.90
21811;DHT22;11067;48.788;9.208;2023-11-18T01:12:36;6.40;99.90
21811;DHT22;11067;48.788;9.208;2023-11-18T01:15:03;6.40;99.90
21811;DHT22;11067;48.788;9.208;2023-11-18T01:17:29;6.50;99.90
21811;DHT22;11067;48.788;9.208;2023-11-18T01:19:55;6.50;99.90
21811;DHT22;11067;48.788;9.208;2023-11-18T01:22:20;6.50;99.90
21811;DHT22;11067;48.788;9.208;2023-11-18T01:24:46;6.50;99.90
21811;DHT22;11067;48.788;9.208;2023-11-18T01:27:12;6.50;99.90
21811;DHT22;11067;48.788;9.208;2023-11-18T01:29:37;6.40;99.90
21811;DHT22;11067;48.788;9.208;2023-11-18T01:32:05;6.50;99.90
21811;DHT22;11067;48.788;9.208;2023-11-18T01:34:35;6.50;99.90
21811;DHT22;11067;48.788;9.208;2023-11-18T01:37:01;6.50;99.90
21811;DHT22;11067;48.788;9.208;2023-11-18T01:39:27;6.50;99.90
21811;DHT22;11067;48.788;9.208;2023-11-18T01:41:53;6.40;99.90
21811;DHT22;11067;48.788;9.208;2023-11-18T01:44:20;6.50;99.90
21811;DHT22;11067;48.788;9.208;2023-11-18T01:46:49;6.50;99.90
21811;DHT22;11067;48.788;9.208;2023-11-18T01:49:15;6.50;99.90
21811;DHT22;11067;48.788;9.208;2023-11-18T01:51:42;6.50;99.90
21811;DHT22;11067;48.788;9.208;2023-11-18T01:54:09;6.50;99.90
21811;DHT22;11067;48.788;9.208;2023-11-18T01:56:41;6.60;99.90
21811;DHT22;11067;48.788;9.208;2023-11-18T01:59:09;6.60;99.90
21811;DHT22;11067;48.788;9.208;2023-11-18T02:01:35;6.60;99.90
21811;DHT22;11067;48.788;9.208;2023-11-18T02:04:02;6.50;99.90
21811;DHT22;11067;48.788;9.208;2023-11-18T02:06:28;6.50;99.90
21811;DHT22;11067;48.788;9.208;2023-11-18T02:08:54;6.40;99.90
21811;DHT22;11067;48.788;9.208;2023-11-18T02:11:37;6.40;99.90
21811;DHT22;11067;48.788;9.208;2023-11-18T02:14:07;6.40;99.90
21811;DHT22;11067;48.788;9.208;2023-11-18T02:16:37;6.40;99.90
21811;DHT22;11067;48.788;9.208;2023-11-18T02:19:09;6.40;99.90
21811;DHT22;11067;48.788;9.208;2023-11-18T02:21:42;6.40;99.90
21811;DHT22;11067;48.788;9.208;2023-11-18T02:24:09;6.40;99.90
21811;DHT22;11067;48.788;9.208;2023-11-18T02:26:35;6.40;99.90
21811;DHT22;11067;48.788;9.208;2023-11-18T02:29:01;6.40;99.90
21811;DHT22;11067;48.788;9.208;2023-11-18T02:31:33;6.40;99.90
21811;DHT22;11067;48.788;9.208;2023-11-18T02:34:14;6.30;99.90
21811;DHT22;11067;48.788;9.208;2023-11-18T02:36:46;6.30;99.90
21811;DHT22;11067;48.788;9.208;2023-11-18T02:39:24;6.40;99.90
21811;DHT22;11067;48.788;9.208;2023-11-18T02:41:54;6.40;99.90
21811;DHT22;11067;48.788;9.208;2023-11-18T02:44:22;6.40;99.90
21811;DHT22;11067;48.788;9.208;2023-11-18T02:46:48;6.40;99.90
21811;DHT22;11067;48.788;9.208;2023-11-18T02:49:14;6.40;99.90
21811;DHT22;11067;48.788;9.208;2023-11-18T02:51:41;6.40;99.90
21811;DHT22;11067;48.788;9.208;2023-11-18T02:54:07;6.40;99.90
21811;DHT22;11067;48.788;9.208;2023-11-18T02:56:38;6.40;99.90
21811;DHT22;11067;48.788;9.208;2023-11-18T02:59:04;6.40;99.90
21811;DHT22;11067;48.788;9.208;2023-11-18T03:01:33;6.40;99.90
21811;DHT22;11067;48.788;9.208;2023-11-18T03:04:04;6.40;99.90
21811;DHT22;11067;48.788;9.208;2023-11-18T03:06:30;6.30;99.90
21811;DHT22;11067;48.788;9.208;2023-11-18T03:08:58;6.30;99.90
21811;DHT22;11067;48.788;9.208;2023-11-18T03:11:24;6.20;99.90
21811;DHT22;11067;48.788;9.208;2023-11-18T03:13:49;6.20;99.90
21811;DHT22;11067;48.788;9.208;2023-11-18T03:16:15;6.10;99.90
21811;DHT22;11067;48.788;9.208;2023-11-18T03:18:42;6.10;99.90
21811;DHT22;11067;48.788;9.208;2023-11-18T03:21:14;6.00;99.90
21811;DHT22;11067;48.788;9.208;2023-11-18T03:23:40;6.00;99.90
21811;DHT22;11067;48.788;9.208;2023-11-18T03:26:07;6.00;99.90
21811;DHT22;11067;48.788;9.208;2023-11-18T03:28:33;5.80;99.90
21811;DHT22;11067;48.788;9.208;2023-11-18T03:30:59;5.70;99.90
21811;DHT22;11067;48.788;9.208;2023-11-18T03:33:24;5.70;99.90
21811;DHT22;11067;48.788;9.208;2023-11-18T03:35:50;5.70;99.90
21811;DHT22;11067;48.788;9.208;2023-11-18T03:38:16;5.80;99.90
21811;DHT22;11067;48.788;9.208;2023-11-18T03:40:43;5.80;99.90
21811;DHT22;11067;48.788;9.208;2023-11-18T03:43:10;5.90;99.90
21811;DHT22;11067;48.788;9.208;2023-11-18T03:45:41;5.90;99.90
21811;DHT22;11067;48.788;9.208;2023-11-18T03:48:07;6.00;99.90
21811;DHT22;11067;48.788;9.208;2023-11-18T03:50:34;6.00;99.90
21811;DHT22;11067;48.788;9.208;2023-11-18T03:52:59;6.00;99.90
21811;DHT22;11067;48.788;9.208;2023-11-18T03:55:26;6.00;99.90
21811;DHT22;11067;48.788;9.208;2023-11-18T03:57:52;6.00;99.90
21811;DHT22;11067;48.788;9.208;2023-11-18T04:00:18;6.00;99.90
21811;DHT22;11067;48.788;9.208;2023-11-18T04:02:50;6.10;99.90
21811;DHT22;11067;48.788;9.208;2023-11-18T04:05:15;6.00;99.90
21811;DHT22;11067;48.788;9.208;2023-11-18T04:07:41;6.00;99.90
21811;DHT22;11067;48.788;9.208;2023-11-18T04:10:09;6.10;99.90
21811;DHT22;11067;48.788;9.208;2023-11-18T04:12:36;6.10;99.90
21811;DHT22;11067;48.788;9.208;2023-11-18T04:15:04;6.00;99.90
21811;DHT22;11067;48.788;9.208;2023-11-18T04:17:33;6.00;99.90
21811;DHT22;11067;48.788;9.208;2023-11-18T04:19:59;5.90;99.90
21811;DHT22;11067;48.788;9.208;2023-11-18T04:22:24;5.80;99.90
21811;DHT22;11067;48.788;9.208;2023-11-18T04:24:50;5.80;99.90
21811;DHT22;11067;48.788;9.208;2023-11-18T04:27:16;5.70;99.90
21811;DHT22;11067;48.788;9.208;2023-11-18T04:29:42;5.70;99.90
21811;DHT22;11067;48.788;9.208;2023-11-18T04:32:07;5.50;99.90
21811;DHT22;11067;48.788;9.208;2023-11-18T04:34:36;5.50;99.90
21811;DHT22;11067;48.788;9.208;2023-11-18T04:37:05;5.40;99.90
21811;DHT22;11067;48.788;9.208;2023-11-18T04:39:34;5.40;99.90
21811;DHT22;11067;48.788;9.208;2023-11-18T04:42:00;5.40;99.90
21811;DHT22;11067;48.788;9.208;2023-11-18T04:44:26;5.40;99.90
21811;DHT22;11067;48.788;9.208;2023-11-18T04:46:52;5.40;99.90
21811;DHT22;11067;48.788;9.208;2023-11-18T04:49:18;5.40;99.90
21811;DHT22;11067;48.788;9.208;2023-11-18T04:51:44;5.30;99.90
21811;DHT22;11067;48.788;9.208;2023-11-18T04:54:10;5.30;99.90
21811;DHT22;11067;48.788;9.208;2023-11-18T04:56:36;5.20;99.90
21811;DHT22;11067;48.788;9.208;2023-11-18T04:59:02;5.20;99.90
21811;DHT22;11067;48.788;9.208;2023-11-18T05:01:30;5.10;99.90
21811;DHT22;11067;48.788;9.208;2023-11-18T05:03:55;5.10;99.90
21811;DHT22;11067;48.788;9.208;2023-11-18T05:06:21;5.00;99.90
21811;DHT22;11067;48.788;9.208;2023-11-18T05:08:46;5.20;99.90
21811;DHT22;11067;48.788;9.208;2023-11-18T05:11:12;5.20;99.90
21811;DHT22;11067;48.788;9.208;2023-11-18T05:13:38;5.10;99.90
21811;DHT22;11067;48.788;9.208;2023-11-18T05:16:06;5.00;99.90
21811;DHT22;11067;48.788;9.208;2023-11-18T05:18:32;5.00;99.90
21811;DHT22;11067;48.788;9.208;2023-11-18T05:21:01;5.00;99.90
21811;DHT22;11067;48.788;9.208;2023-11-18T05:23:28;4.90;99.90
21811;DHT22;11067;48.788;9.208;2023-11-18T05:25:57;5.00;99.90
21811;DHT22;11067;48.788;9.208;2023-11-18T05:28:23;4.90;99.90
21811;DHT22;11067;48.788;9.208;2023-11-18T05:30:50;4.90;99.90
21811;DHT22;11067;48.788;9.208;2023-11-18T05:33:16;4.90;99.90
21811;DHT22;11067;48.788;9.208;2023-11-18T05:35:44;4.80;99.90
21811;DHT22;11067;48.788;9.208;2023-11-18T05:38:16;4.80;99.90
21811;DHT22;11067;48.788;9.208;2023-11-18T05:40:45;4.80;99.90
21811;DHT22;11067;48.788;9.208;2023-11-18T05:43:21;4.80;99.90
21811;DHT22;11067;48.788;9.208;2023-11-18T05:45:47;4.80;99.90
21811;DHT22;11067;48.788;9.208;2023-11-18T05:48:41;4.90;99.90
21811;DHT22;11067;48.788;9.208;2023-11-18T05:51:07;4.80;99.90
21811;DHT22;11067;48.788;9.208;2023-11-18T05:53:33;4.90;99.90
21811;DHT22;11067;48.788;9.208;2023-11-18T05:55:58;4.80;99.90
21811;DHT22;11067;48.788;9.208;2023-11-18T05:58:24;4.80;99.90
21811;DHT22;11067;48.788;9.208;2023-11-18T06:00:49;4.70;99.90
21811;DHT22;11067;48.788;9.208;2023-11-18T06:03:15;4.70;99.90
21811;DHT22;11067;48.788;9.208;2023-11-18T06:05:40;4.80;99.90
21811;DHT22;11067;48.788;9.208;2023-11-18T06:08:06;4.80;99.90
21811;DHT22;11067;48.788;9.208;2023-11-18T06:10:33;4.80;99.90
21811;DHT22;11067;48.788;9.208;2023-11-18T06:12:59;4.70;99.90
21811;DHT22;11067;48.788;9.208;2023-11-18T06:15:25;4.70;99.90
21811;DHT22;11067;48.788;9.208;2023-11-18T06:17:50;4.60;99.90
21811;DHT22;11067;48.788;9.208;2023-11-18T06:20:16;4.60;99.90
21811;DHT22;11067;48.788;9.208;2023-11-18T06:22:42;4.50;99.90
21811;DHT22;11067;48.788;9.208;2023-11-18T06:25:08;4.40;99.90
21811;DHT22;11067;48.788;9.208;2023-11-18T06:27:34;4.40;99.90
21811;DHT22;11067;48.788;9.208;2023-11-18T06:30:00;4.30;99.90
21811;DHT22;11067;48.788;9.208;2023-11-18T06:32:26;4.30;99.90
21811;DHT22;11067;48.788;9.208;2023-11-18T06:34:52;4.40;99.90
21811;DHT22;11067;48.788;9.208;2023-11-18T06:37:19;4.30;99.90
21811;DHT22;11067;48.788;9.208;2023-11-18T06:39:44;4.30;99.90
21811;DHT22;11067;48.788;9.208;2023-11-18T06:42:13;4.20;99.90
21811;DHT22;11067;48.788;9.208;2023-11-18T06:44:39;4.20;99.90
21811;DHT22;11067;48.788;9.208;2023-11-18T06:47:05;4.30;99.90
21811;DHT22;11067;48.788;9.208;2023-11-18T06:49:31;4.30;99.90
21811;DHT22;11067;48.788;9.208;2023-11-18T06:52:00;4.30;99.90
21811;DHT22;11067;48.788;9.208;2023-11-18T06:54:31;4.30;99.90
21811;DHT22;11067;48.788;9.208;2023-11-18T06:56:59;4.50;99.90
21811;DHT22;11067;48.788;9.208;2023-11-18T06:59:24;4.50;99.90
21811;DHT22;11067;48.788;9.208;2023-11-18T07:01:50;4.40;99.90
21811;DHT22;11067;48.788;9.208;2023-11-18T07:04:15;4.40;99.90
21811;DHT22;11067;48.788;9.208;2023-11-18T07:06:41;4.50;99.90
21811;DHT22;11067;48.788;9.208;2023-11-18T07:09:09;4.50;99.90
21811;DHT22;11067;48.788;9.208;2023-11-18T07:11:39;4.60;99.90
21811;DHT22;11067;48.788;9.208;2023-11-18T07:14:06;4.70;99.90
21811;DHT22;11067;48.788;9.208;2023-11-18T07:16:34;4.80;99.90
21811;DHT22;11067;48.788;9.208;2023-11-18T07:19:00;4.90;99.90
21811;DHT22;11067;48.788;9.208;2023-11-18T07:21:25;5.00;99.90
21811;DHT22;11067;48.788;9.208;2023-11-18T07:23:51;5.10;99.90
21811;DHT22;11067;48.788;9.208;2023-11-18T07:26:16;5.00;99.90
21811;DHT22;11067;48.788;9.208;2023-11-18T07:28:42;5.10;99.90
21811;DHT22;11067;48.788;9.208;2023-11-18T07:31:09;5.20;99.90
21811;DHT22;11067;48.788;9.208;2023-11-18T07:33:35;5.30;99.90
21811;DHT22;11067;48.788;9.208;2023-11-18T07:36:00;5.40;99.90
21811;DHT22;11067;48.788;9.208;2023-11-18T07:38:28;5.40;99.90
21811;DHT22;11067;48.788;9.208;2023-11-18T07:40:54;5.40;99.90
21811;DHT22;11067;48.788;9.208;2023-11-18T07:43:22;5.50;99.90
21811;DHT22;11067;48.788;9.208;2023-11-18T07:45:48;5.40;99.90
21811;DHT22;11067;48.788;9.208;2023-11-18T07:48:18;5.50;99.90
21811;DHT22;11067;48.788;9.208;2023-11-18T07:50:46;5.50;99.90
21811;DHT22;11067;48.788;9.208;2023-11-18T07:53:15;5.60;99.90
21811;DHT22;11067;48.788;9.208;2023-11-18T07:55:41;5.60;99.90
21811;DHT22;11067;48.788;9.208;2023-11-18T07:58:08;5.90;99.90
21811;DHT22;11067;48.788;9.208;2023-11-18T08:00:39;5.90;99.90
21811;DHT22;11067;48.788;9.208;2023-11-18T08:03:12;5.90;99.90
21811;DHT22;11067;48.788;9.208;2023-11-18T08:05:41;5.90;99.90
21811;DHT22;11067;48.788;9.208;2023-11-18T08:08:09;6.00;99.90
21811;DHT22;11067;48.788;9.208;2023-11-18T08:10:36;6.00;99.90
21811;DHT22;11067;48.788;9.208;2023-11-18T08:13:08;6.00;99.90
21811;DHT22;11067;48.788;9.208;2023-11-18T08:15:41;6.10;99.90
21811;DHT22;11067;48.788;9.208;2023-11-18T08:18:07;6.20;99.90
21811;DHT22;11067;48.788;9.208;2023-11-18T08:20:35;6.20;99.90
21811;DHT22;11067;48.788;9.208;2023-11-18T08:23:01;6.30;99.90
21811;DHT22;11067;48.788;9.208;2023-11-18T08:25:27;6.40;99.90
21811;DHT22;11067;48.788;9.208;2023-11-18T08:27:52;6.50;99.90
21811;DHT22;11067;48.788;9.208;2023-11-18T08:30:18;6.60;99.90
21811;DHT22;11067;48.788;9.208;2023-11-18T08:32:46;6.60;99.90
21811;DHT22;11067;48.788;9.208;2023-11-18T08:35:15;6.80;99.90
21811;DHT22;11067;48.788;9.208;2023-11-18T08:37:41;6.80;99.90
21811;DHT22;11067;48.788;9.208;2023-11-18T08:40:13;6.90;99.90
21811;DHT22;11067;48.788;9.208;2023-11-18T08:42:47;6.90;99.90
21811;DHT22;11067;48.788;9.208;2023-11-18T08:45:28;6.90;99.90
21811;DHT22;11067;48.788;9.208;2023-11-18T08:47:59;7.10;99.90
21811;DHT22;11067;48.788;9.208;2023-11-18T08:50:27;7.00;99.90
21811;DHT22;11067;48.788;9.208;2023-11-18T08:52:55;7.00;99.90
21811;DHT22;11067;48.788;9.208;2023-11-18T08:55:25;7.00;99.90
21811;DHT22;11067;48.788;9.208;2023-11-18T08:58:08;7.10;99.90
21811;DHT22;11067;48.788;9.208;2023-11-18T09:00:56;7.20;99.90
21811;DHT22;11067;48.788;9.208;2023-11-18T09:03:31;7.20;99.90
21811;DHT22;11067;48.788;9.208;2023-11-18T09:06:16;7.10;99.90
21811;DHT22;11067;48.788;9.208;2023-11-18T09:08:51;7.20;99.90
21811;DHT22;11067;48.788;9.208;2023-11-18T09:11:22;7.20;99.90
21811;DHT22;11067;48.788;9.208;2023-11-18T09:13:49;7.00;99.90
21811;DHT22;11067;48.788;9.208;2023-11-18T09:16:20;7.10;99.90
21811;DHT22;11067;48.788;9.208;2023-11-18T09:18:51;7.10;99.90
21811;DHT22;11067;48.788;9.208;2023-11-18T09:21:17;7.20;99.90
21811;DHT22;11067;48.788;9.208;2023-11-18T09:23:50;7.20;99.90
21811;DHT22;11067;48.788;9.208;2023-11-18T09:26:16;7.20;99.90
21811;DHT22;11067;48.788;9.208;2023-11-18T09:28:42;7.30;99.90
21811;DHT22;11067;48.788;9.208;2023-11-18T09:31:09;7.40;99.90
21811;DHT22;11067;48.788;9.208;2023-11-18T09:33:39;7.30;99.90
21811;DHT22;11067;48.788;9.208;2023-11-18T09:36:11;7.40;99.90
21811;DHT22;11067;48.788;9.208;2023-11-18T09:38:40;7.50;99.90
21811;DHT22;11067;48.788;9.208;2023-11-18T09:41:10;7.70;99.90
21811;DHT22;11067;48.788;9.208;2023-11-18T09:43:40;7.80;99.90
21811;DHT22;11067;48.788;9.208;2023-11-18T09:46:17;7.90;99.90
21811;DHT22;11067;48.788;9.208;2023-11-18T09:48:51;7.90;99.90
21811;DHT22;11067;48.788;9.208;2023-11-18T09:51:26;8.20;99.90
21811;DHT22;11067;48.788;9.208;2023-11-18T09:53:59;8.40;99.90
21811;DHT22;11067;48.788;9.208;2023-11-18T09:56:31;8.30;99.90
21811;DHT22;11067;48.788;9.208;2023-11-18T09:59:31;8.30;99.90
21811;DHT22;11067;48.788;9.208;2023-11-18T10:02:00;8.40;99.90
21811;DHT22;11067;48.788;9.208;2023-11-18T10:04:28;8.40;99.90
21811;DHT22;11067;48.788;9.208;2023-11-18T10:06:54;8.50;99.90
21811;DHT22;11067;48.788;9.208;2023-11-18T10:09:26;8.60;99.90
21811;DHT22;11067;48.788;9.208;2023-11-18T10:12:03;8.60;99.90
21811;DHT22;11067;48.788;9.208;2023-11-18T10:14:35;8.40;99.90
21811;DHT22;11067;48.788;9.208;2023-11-18T10:17:07;8.40;99.90
21811;DHT22;11067;48.788;9.208;2023-11-18T10:19:55;8.40;99.90
21811;DHT22;11067;48.788;9.208;2023-11-18T10:22:23;8.20;99.90
21811;DHT22;11067;48.788;9.208;2023-11-18T10:24:49;8.10;99.90
21811;DHT22;11067;48.788;9.208;2023-11-18T10:27:26;8.10;99.90
21811;DHT22;11067;48.788;9.208;2023-11-18T10:30:04;8.10;99.90
21811;DHT22;11067;48.788;9.208;2023-11-18T10:32:31;8.20;99.90
21811;DHT22;11067;48.788;9.208;2023-11-18T10:35:01;8.20;99.90
21811;DHT22;11067;48.788;9.208;2023-11-18T10:37:27;8.20;99.90
21811;DHT22;11067;48.788;9.208;2023-11-18T10:39:56;8.20;99.90
21811;DHT22;11067;48.788;9.208;2023-11-18T10:42:25;8.40;99.90
21811;DHT22;11067;48.788;9.208;2023-11-18T10:44:58;8.40;99.90
21811;DHT22;11067;48.788;9.208;2023-11-18T10:47:27;8.50;99.90
21811;DHT22;11067;48.788;9.208;2023-11-18T10:49:54;8.50;99.90
21811;DHT22;11067;48.788;9.208;2023-11-18T10:52:21;8.50;99.90
21811;DHT22;11067;48.788;9.208;2023-11-18T10:54:52;8.60;99.90
21811;DHT22;11067;48.788;9.208;2023-11-18T10:57:20;8.40;99.90
21811;DHT22;11067;48.788;9.208;2023-11-18T10:59:59;8.60;99.90
21811;DHT22;11067;48.788;9.208;2023-11-18T11:02:25;8.70;99.90
21811;DHT22;11067;48.788;9.208;2023-11-18T11:04:51;8.80;99.90
21811;DHT22;11067;48.788;9.208;2023-11-18T11:07:19;8.70;99.90
21811;DHT22;11067;48.788;9.208;2023-11-18T11:09:49;8.80;99.90
21811;DHT22;11067;48.788;9.208;2023-11-18T11:12:21;8.80;99.90
21811;DHT22;11067;48.788;9.208;2023-11-18T11:14:59;8.80;99.90
21811;DHT22;11067;48.788;9.208;2023-11-18T11:17:27;9.00;99.90
21811;DHT22;11067;48.788;9.208;2023-11-18T11:20:06;9.00;99.90
21811;DHT22;11067;48.788;9.208;2023-11-18T11:25:35;9.00;99.90
21811;DHT22;11067;48.788;9.208;2023-11-18T11:28:08;8.90;99.90
21811;DHT22;11067;48.788;9.208;2023-11-18T11:30:46;9.00;99.90
21811;DHT22;11067;48.788;9.208;2023-11-18T11:33:21;9.10;99.90
21811;DHT22;11067;48.788;9.208;2023-11-18T11:35:55;9.10;99.90
21811;DHT22;11067;48.788;9.208;2023-11-18T11:38:25;9.10;99.90
21811;DHT22;11067;48.788;9.208;2023-11-18T11:40:53;9.00;99.90
21811;DHT22;11067;48.788;9.208;2023-11-18T11:43:20;9.10;99.90
21811;DHT22;11067;48.788;9.208;2023-11-18T11:45:52;9.20;99.90
21811;DHT22;11067;48.788;9.208;2023-11-18T11:48:20;9.10;99.90
21811;DHT22;11067;48.788;9.208;2023-11-18T11:53:42;9.20;99.90
21811;DHT22;11067;48.788;9.208;2023-11-18T11:56:11;9.20;99.90
21811;DHT22;11067;48.788;9.208;2023-11-18T11:58:41;9.20;99.90
21811;DHT22;11067;48.788;9.208;2023-11-18T12:03:46;9.20;99.90
21811;DHT22;11067;48.788;9.208;2023-11-18T12:06:18;9.30;99.90
21811;DHT22;11067;48.788;9.208;2023-11-18T12:08:52;9.30;99.90
21811;DHT22;11067;48.788;9.208;2023-11-18T12:11:18;9.20;99.90
21811;DHT22;11067;48.788;9.208;2023-11-18T12:14:05;9.00;99.90
21811;DHT22;11067;48.788;9.208;2023-11-18T12:17:07;9.00;99.90
21811;DHT22;11067;48.788;9.208;2023-11-18T12:19:35;9.00;99.90
21811;DHT22;11067;48.788;9.208;2023-11-18T12:22:22;9.00;99.90
21811;DHT22;11067;48.788;9.208;2023-11-18T12:27:42;9.20;99.90
21811;DHT22;11067;48.788;9.208;2023-11-18T12:33:06;9.30;99.90
21811;DHT22;11067;48.788;9.208;2023-11-18T12:41:36;9.30;99.90
21811;DHT22;11067;48.788;9.208;2023-11-18T12:47:00;9.30;99.90
21811;DHT22;11067;48.788;9.208;2023-11-18T12:49:40;9.10;99.90
21811;DHT22;11067;48.788;9.208;2023-11-18T12:52:10;9.00;99.90
21811;DHT22;11067;48.788;9.208;2023-11-18T12:54:37;9.10;99.90
21811;DHT22;11067;48.788;9.208;2023-11-18T12:57:04;9.20;99.90
21811;DHT22;11067;48.788;9.208;2023-11-18T12:59:36;9.20;99.90
21811;DHT22;11067;48.788;9.208;2023-11-18T13:02:09;9.20;99.90
21811;DHT22;11067;48.788;9.208;2023-11-18T13:04:39;9.30;99.90
21811;DHT22;11067;48.788;9.208;2023-11-18T13:07:06;9.30;99.90
21811;DHT22;11067;48.788;9.208;2023-11-18T13:09:34;9.50;99.90
21811;DHT22;11067;48.788;9.208;2023-11-18T13:12:03;9.40;99.90
21811;DHT22;11067;48.788;9.208;2023-11-18T13:14:35;9.40;99.90
21811;DHT22;11067;48.788;9.208;2023-11-18T13:17:15;9.40;99.90
21811;DHT22;11067;48.788;9.208;2023-11-18T13:19:42;9.40;99.90
21811;DHT22;11067;48.788;9.208;2023-11-18T13:22:13;9.40;99.90
21811;DHT22;11067;48.788;9.208;2023-11-18T13:24:42;9.40;99.90
21811;DHT22;11067;48.788;9.208;2023-11-18T13:27:16;9.30;99.90
21811;DHT22;11067;48.788;9.208;2023-11-18T13:29:45;9.40;99.90
21811;DHT22;11067;48.788;9.208;2023-11-18T13:32:18;9.30;99.90
21811;DHT22;11067;48.788;9.208;2023-11-18T13:34:48;9.40;99.90
21811;DHT22;11067;48.788;9.208;2023-11-18T13:37:14;9.30;99.90
21811;DHT22;11067;48.788;9.208;2023-11-18T13:39:42;9.30;99.90
21811;DHT22;11067;48.788;9.208;2023-11-18T13:42:26;9.30;99.90
21811;DHT22;11067;48.788;9.208;2023-11-18T13:44:59;9.20;99.90
21811;DHT22;11067;48.788;9.208;2023-11-18T13:47:27;9.20;99.90
21811;DHT22;11067;48.788;9.208;2023-11-18T13:49:57;9.20;99.90
21811;DHT22;11067;48.788;9.208;2023-11-18T13:52:24;9.10;99.90
21811;DHT22;11067;48.788;9.208;2023-11-18T13:54:51;9.10;99.90
21811;DHT22;11067;48.788;9.208;2023-11-18T13:57:21;9.10;99.90
21811;DHT22;11067;48.788;9.208;2023-11-18T13:59:50;9.10;99.90
21811;DHT22;11067;48.788;9.208;2023-11-18T14:02:15;9.10;99.90
21811;DHT22;11067;48.788;9.208;2023-11-18T14:04:42;9.10;99.90
21811;DHT22;11067;48.788;9.208;2023-11-18T14:07:14;9.10;99.90
21811;DHT22;11067;48.788;9.208;2023-11-18T14:09:41;9.10;99.90
21811;DHT22;11067;48.788;9.208;2023-11-18T14:12:10;9.20;99.90
21811;DHT22;11067;48.788;9.208;2023-11-18T14:14:36;9.10;99.90
21811;DHT22;11067;48.788;9.208;2023-11-18T14:17:03;9.20;99.90
21811;DHT22;11067;48.788;9.208;2023-11-18T14:19:31;9.20;99.90
21811;DHT22;11067;48.788;9.208;2023-11-18T14:21:57;9.20;99.90
21811;DHT22;11067;48.788;9.208;2023-11-18T14:24:23;9.20;99.90
21811;DHT22;11067;48.788;9.208;2023-11-18T14:26:55;9.30;99.90
21811;DHT22;11067;48.788;9.208;2023-11-18T14:29:21;9.20;99.90
21811;DHT22;11067;48.788;9.208;2023-11-18T14:31:48;9.00;99.90
21811;DHT22;11067;48.788;9.208;2023-11-18T14:34:14;8.90;99.90
21811;DHT22;11067;48.788;9.208;2023-11-18T14:36:40;9.00;99.90
21811;DHT22;11067;48.788;9.208;2023-11-18T14:39:08;9.10;99.90
21811;DHT22;11067;48.788;9.208;2023-11-18T14:41:36;9.00;99.90
21811;DHT22;11067;48.788;9.208;2023-11-18T14:44:02;9.00;99.90
21811;DHT22;11067;48.788;9.208;2023-11-18T14:46:30;8.90;99.90
21811;DHT22;11067;48.788;9.208;2023-11-18T14:48:57;9.10;99.90
21811;DHT22;11067;48.788;9.208;2023-11-18T14:51:23;8.90;99.90
21811;DHT22;11067;48.788;9.208;2023-11-18T14:53:48;8.80;99.90
21811;DHT22;11067;48.788;9.208;2023-11-18T14:56:14;8.80;99.90
21811;DHT22;11067;48.788;9.208;2023-11-18T14:58:40;8.90;99.90
21811;DHT22;11067;48.788;9.208;2023-11-18T15:01:06;8.90;99.90
21811;DHT22;11067;48.788;9.208;2023-11-18T15:03:33;8.90;99.90
21811;DHT22;11067;48.788;9.208;2023-11-18T15:05:58;8.90;99.90
21811;DHT22;11067;48.788;9.208;2023-11-18T15:08:24;8.90;99.90
21811;DHT22;11067;48.788;9.208;2023-11-18T15:10:50;8.90;99.90
21811;DHT22;11067;48.788;9.208;2023-11-18T15:13:16;8.80;99.90
21811;DHT22;11067;48.788;9.208;2023-11-18T15:15:42;8.80;99.90
21811;DHT22;11067;48.788;9.208;2023-11-18T15:18:08;8.70;99.90
21811;DHT22;11067;48.788;9.208;2023-11-18T15:20:41;8.70;99.90
21811;DHT22;11067;48.788;9.208;2023-11-18T15:23:09;8.70;99.90
21811;DHT22;11067;48.788;9.208;2023-11-18T15:25:34;8.70;99.90
21811;DHT22;11067;48.788;9.208;2023-11-18T15:28:00;8.70;99.90
21811;DHT22;11067;48.788;9.208;2023-11-18T15:30:26;8.70;99.90
21811;DHT22;11067;48.788;9.208;2023-11-18T15:32:53;8.60;99.90
21811;DHT22;11067;48.788;9.208;2023-11-18T15:35:18;8.60;99.90
21811;DHT22;11067;48.788;9.208;2023-11-18T15:37:46;8.60;99.90
21811;DHT22;11067;48.788;9.208;2023-11-18T15:40:13;8.60;99.90
21811;DHT22;11067;48.788;9.208;2023-11-18T15:42:41;8.70;99.90
21811;DHT22;11067;48.788;9.208;2023-11-18T15:45:14;8.60;99.90
21811;DHT22;11067;48.788;9.208;2023-11-18T15:47:41;8.50;99.90
21811;DHT22;11067;48.788;9.208;2023-11-18T15:50:11;8.50;99.90
21811;DHT22;11067;48.788;9.208;2023-11-18T15:52:48;8.60;99.90
21811;DHT22;11067;48.788;9.208;2023-11-18T15:55:17;8.60;99.90
21811;DHT22;11067;48.788;9.208;2023-11-18T15:57:50;8.60;99.90
21811;DHT22;11067;48.788;9.208;2023-11-18T16:00:27;8.60;99.90
21811;DHT22;11067;48.788;9.208;2023-11-18T16:02:54;8.60;99.90
21811;DHT22;11067;48.788;9.208;2023-11-18T16:05:21;8.60;99.90
21811;DHT22;11067;48.788;9.208;2023-11-18T16:07:51;8.60;99.90
21811;DHT22;11067;48.788;9.208;2023-11-18T16:10:18;8.60;99.90
21811;DHT22;11067;48.788;9.208;2023-11-18T16:12:47;8.50;99.90
21811;DHT22;11067;48.788;9.208;2023-11-18T16:15:13;8.50;99.90
21811;DHT22;11067;48.788;9.208;2023-11-18T16:17:40;8.40;99.90